Time;durP1;ratioP1;P1;durP2;ratioP2;P2;SDS_P1;SDS_P2;PMS_P1;PMS_P2;Temp;Humidity;BMP_temperature;BMP_pressure;BME280_temperature;BME280_humidity;BME280_pressure;Samples;Min_cycle;Max_cycle;Signal;HPM_P1;HPM_P2
2021/12/10 00:02:11;;;;;;;123.23;62.07;;;;;;;1.94;100.00;94174.09;5099764;27;20239;-66
2021/12/10 00:04:41;;;;;;;96.32;49.33;;;;;;;2.33;100.00;94192.69;5098848;28;20250;-67
2021/12/10 00:07:12;;;;;;;121.88;61.20;;;;;;;2.36;100.00;94196.00;5099099;28;20212;-67
2021/12/10 00:09:43;;;;;;;156.20;80.22;;;;;;;2.27;100.00;94188.59;5099501;28;20201;-67
2021/12/10 00:12:14;;;;;;;163.37;82.53;;;;;;;2.30;100.00;94188.56;5099517;28;20780;-67
2021/12/10 00:14:42;;;;;;;161.17;75.73;;;;;;;2.17;100.00;94174.59;5099946;28;20197;-68
2021/12/10 00:17:13;;;;;;;123.50;62.23;;;;;;;2.27;100.00;94177.75;5099591;28;20684;-67
2021/12/10 00:19:45;;;;;;;124.33;59.67;;;;;;;2.45;100.00;94169.13;5101078;28;20262;-67
2021/12/10 00:22:15;;;;;;;141.40;66.07;;;;;;;2.31;100.00;94174.34;5100813;28;20208;-67
2021/12/10 00:24:44;;;;;;;113.83;56.77;;;;;;;2.30;100.00;94187.75;5100643;28;20201;-67
2021/12/10 00:27:12;;;;;;;129.97;58.03;;;;;;;2.24;100.00;94172.78;5100778;28;20295;-67
2021/12/10 00:29:47;;;;;;;134.50;66.13;;;;;;;2.07;100.00;94179.75;5099631;28;20822;-67
2021/12/10 00:32:18;;;;;;;121.83;60.33;;;;;;;1.93;100.00;94154.91;5098909;28;20232;-67
2021/12/10 00:34:47;;;;;;;111.67;56.23;;;;;;;1.95;100.00;94163.25;5099070;28;20542;-67
2021/12/10 00:37:18;;;;;;;91.83;49.00;;;;;;;2.30;100.00;94162.66;5099049;28;20260;-67
2021/12/10 00:39:48;;;;;;;103.20;49.20;;;;;;;2.37;100.00;94170.06;5099421;28;20228;-67
2021/12/10 00:42:20;;;;;;;117.53;55.43;;;;;;;2.26;100.00;94171.09;5099311;28;20247;-68
2021/12/10 00:44:48;;;;;;;120.28;55.40;;;;;;;2.27;100.00;94158.53;5100528;28;20576;-66
2021/12/10 00:47:16;;;;;;;100.00;50.47;;;;;;;2.29;100.00;94150.97;5101179;28;20216;-67
2021/12/10 00:49:43;;;;;;;100.50;49.30;;;;;;;2.32;100.00;94155.94;5101006;28;20204;-68
2021/12/10 00:52:12;;;;;;;98.78;49.80;;;;;;;2.41;100.00;94165.84;5099194;28;20293;-67
2021/12/10 00:54:39;;;;;;;96.47;45.25;;;;;;;2.29;100.00;94158.50;5098021;28;20201;-67
2021/12/10 00:57:08;;;;;;;89.18;43.08;;;;;;;2.23;100.00;94151.06;5098457;28;20313;-67
2021/12/10 00:59:35;;;;;;;95.77;43.60;;;;;;;2.30;100.00;94155.97;5099252;28;20578;-67
2021/12/10 01:02:04;;;;;;;71.60;37.00;;;;;;;2.54;100.00;94154.72;5098751;28;20201;-67
2021/12/10 01:04:35;;;;;;;93.57;41.47;;;;;;;2.68;100.00;94141.97;5098164;28;20951;-68
2021/12/10 01:07:06;;;;;;;82.70;40.80;;;;;;;2.76;100.00;94142.63;5098969;28;21962;-67
2021/12/10 01:09:36;;;;;;;76.93;39.00;;;;;;;2.74;100.00;94149.34;5098421;28;20205;-68
2021/12/10 01:12:06;;;;;;;78.27;37.27;;;;;;;2.71;100.00;94155.28;5098503;28;20289;-67
2021/12/10 01:14:52;;;;;;;68.10;37.13;;;;;;;2.55;100.00;94138.00;5098427;28;20266;-67
2021/12/10 01:25:38;;;;;;;72.70;35.53;;;;;;;2.63;100.00;94154.59;5100120;28;20235;-67
2021/12/10 01:28:08;;;;;;;66.00;33.73;;;;;;;2.71;100.00;94145.25;5099943;28;20208;-67
2021/12/10 01:30:37;;;;;;;73.35;33.85;;;;;;;2.82;100.00;94141.69;5099271;28;20200;-67
2021/12/10 01:33:08;;;;;;;72.47;36.63;;;;;;;2.91;100.00;94131.50;5099436;28;20212;-67
2021/12/10 01:35:40;;;;;;;78.18;37.78;;;;;;;2.89;100.00;94118.97;5099814;28;20212;-67
2021/12/10 01:38:09;;;;;;;65.63;34.55;;;;;;;3.02;100.00;94117.03;5099711;28;20244;-68
2021/12/10 01:40:40;;;;;;;69.33;35.67;;;;;;;3.05;100.00;94109.47;5098660;28;20568;-67
2021/12/10 01:43:11;;;;;;;73.07;38.60;;;;;;;2.70;100.00;94107.66;5097709;28;20723;-67
2021/12/10 01:45:46;;;;;;;75.30;37.03;;;;;;;2.76;100.00;94111.69;5098040;28;20185;-67
2021/12/10 01:48:19;;;;;;;68.57;37.43;;;;;;;2.85;100.00;94117.38;5098230;28;20197;-67
2021/12/10 01:50:49;;;;;;;75.23;36.60;;;;;;;2.97;100.00;94116.34;5098205;28;20200;-68
2021/12/10 01:53:20;;;;;;;66.80;36.00;;;;;;;3.08;100.00;94112.72;5098217;28;20663;-67
2021/12/10 01:55:50;;;;;;;66.05;33.80;;;;;;;3.15;100.00;94105.91;5099228;28;20262;-67
2021/12/10 01:58:21;;;;;;;66.53;33.13;;;;;;;3.20;100.00;94099.13;5101116;28;20292;-67
2021/12/10 02:00:55;;;;;;;65.07;33.53;;;;;;;3.08;100.00;94094.34;5099820;28;20197;-68
2021/12/10 02:03:22;;;;;;;69.10;33.80;;;;;;;2.93;100.00;94095.50;5102205;28;20212;-67
2021/12/10 02:05:51;;;;;;;60.97;31.55;;;;;;;2.92;100.00;94093.00;5102011;28;20262;-68
2021/12/10 02:08:18;;;;;;;67.93;34.20;;;;;;;3.07;100.00;94087.66;5102108;28;20236;-67
2021/12/10 02:10:45;;;;;;;62.37;31.67;;;;;;;3.00;100.00;94098.69;5101826;28;20727;-68
2021/12/10 02:13:13;;;;;;;55.30;29.85;;;;;;;2.92;100.00;94108.06;5102127;28;20228;-67
2021/12/10 02:15:40;;;;;;;57.83;30.13;;;;;;;2.75;100.00;94100.84;5102258;28;20340;-71
2021/12/10 02:18:07;;;;;;;50.22;29.42;;;;;;;2.74;100.00;94079.94;5101808;28;20201;-68
2021/12/10 02:20:38;;;;;;;48.38;27.45;;;;;;;2.89;100.00;94076.31;5101322;28;20201;-68
2021/12/10 02:23:08;;;;;;;55.70;29.03;;;;;;;2.87;100.00;94069.69;5101470;28;20690;-67
2021/12/10 02:25:37;;;;;;;51.47;27.53;;;;;;;2.74;100.00;94062.38;5102119;28;20864;-68
2021/12/10 02:28:06;;;;;;;45.23;26.73;;;;;;;2.92;100.00;94068.75;5101772;28;20200;-68
2021/12/10 02:30:33;;;;;;;45.38;25.52;;;;;;;2.64;100.00;94050.91;5102922;28;20201;-67
2021/12/10 02:33:00;;;;;;;54.80;27.63;;;;;;;2.45;100.00;94044.59;5103518;28;20233;-67
2021/12/10 02:35:28;;;;;;;46.43;26.57;;;;;;;2.48;100.00;94062.06;5103285;28;20196;-67
2021/12/10 02:37:55;;;;;;;45.93;26.07;;;;;;;2.61;100.00;94060.16;5103562;28;20723;-67
2021/12/10 02:40:25;;;;;;;46.67;27.40;;;;;;;2.51;100.00;94062.00;5103125;28;20285;-67
2021/12/10 02:42:55;;;;;;;48.83;27.10;;;;;;;2.60;100.00;94071.03;5102867;28;20201;-68
2021/12/10 02:45:24;;;;;;;44.23;25.53;;;;;;;2.70;100.00;94083.41;5103443;28;20201;-67
2021/12/10 02:47:52;;;;;;;39.10;24.70;;;;;;;3.04;100.00;94090.22;5103566;28;20185;-67
2021/12/10 02:50:22;;;;;;;42.93;26.37;;;;;;;3.00;100.00;94106.19;5103389;28;20625;-67
2021/12/10 02:52:51;;;;;;;44.67;23.77;;;;;;;2.85;100.00;94114.03;5101792;28;20748;-67
2021/12/10 02:55:19;;;;;;;47.83;28.40;;;;;;;2.72;100.00;94096.69;5101113;28;20309;-67
2021/12/10 02:57:49;;;;;;;52.47;27.33;;;;;;;2.55;100.00;94088.69;5101455;28;20197;-67
2021/12/10 03:00:20;;;;;;;50.23;28.70;;;;;;;2.82;100.00;94101.56;5100219;28;20695;-67
2021/12/10 03:02:47;;;;;;;45.63;28.43;;;;;;;2.92;100.00;94093.84;5100923;28;20208;-67
2021/12/10 03:05:14;;;;;;;50.30;26.40;;;;;;;2.82;100.00;94084.81;5100855;28;20242;-67
2021/12/10 03:07:42;;;;;;;43.40;28.17;;;;;;;2.83;100.00;94083.13;5101059;28;20186;-67
2021/12/10 03:10:13;;;;;;;55.93;28.70;;;;;;;2.89;100.00;94085.53;5100842;28;20233;-68
2021/12/10 03:12:40;;;;;;;51.07;29.33;;;;;;;2.91;100.00;94077.13;5100745;28;20224;-67
2021/12/10 03:15:11;;;;;;;56.50;30.37;;;;;;;2.72;100.00;94071.63;5100903;28;20201;-67
2021/12/10 03:17:38;;;;;;;52.60;28.70;;;;;;;2.82;100.00;94081.47;5100999;28;20209;-68
2021/12/10 03:20:10;;;;;;;58.33;32.17;;;;;;;2.83;100.00;94083.97;5100853;28;20201;-67
2021/12/10 03:22:38;;;;;;;65.87;35.23;;;;;;;2.81;100.00;94078.16;5101133;28;20266;-67
2021/12/10 03:25:06;;;;;;;71.40;37.60;;;;;;;2.88;100.00;94081.38;5100628;28;20189;-66
2021/12/10 03:27:33;;;;;;;67.45;37.25;;;;;;;2.99;100.00;94084.47;5100667;28;20204;-68
2021/12/10 03:30:01;;;;;;;76.70;38.90;;;;;;;2.79;100.00;94081.53;5100838;28;20633;-67
2021/12/10 03:32:32;;;;;;;75.63;38.05;;;;;;;2.74;100.00;94079.13;5100381;28;20286;-67
2021/12/10 03:35:01;;;;;;;67.53;39.25;;;;;;;2.80;100.00;94089.03;5100234;28;20269;-68
2021/12/10 03:37:28;;;;;;;72.60;39.37;;;;;;;2.75;100.00;94070.72;5100135;28;20201;-68
2021/12/10 03:39:55;;;;;;;73.45;39.70;;;;;;;2.72;100.00;94076.63;5100353;28;20699;-67
2021/12/10 03:42:23;;;;;;;81.20;40.50;;;;;;;2.66;100.00;94080.97;5100789;28;20201;-68
2021/12/10 03:44:50;;;;;;;68.83;38.97;;;;;;;2.63;100.00;94086.03;5099950;28;20197;-68
2021/12/10 03:47:17;;;;;;;78.50;40.50;;;;;;;2.79;100.00;94089.06;5100311;28;20205;-68
2021/12/10 03:49:45;;;;;;;75.50;40.20;;;;;;;2.82;100.00;94097.38;5100153;27;20254;-68
2021/12/10 03:52:12;;;;;;;70.07;39.53;;;;;;;2.80;100.00;94090.72;5099714;28;20235;-68
2021/12/10 03:54:40;;;;;;;84.73;40.77;;;;;;;3.05;100.00;94094.41;5100025;28;20332;-68
2021/12/10 03:57:08;;;;;;;89.07;42.30;;;;;;;2.93;100.00;94092.97;5100085;28;20205;-68
2021/12/10 03:59:36;;;;;;;84.28;42.80;;;;;;;2.94;100.00;94096.31;5100189;28;20197;-67
2021/12/10 04:02:06;;;;;;;84.33;43.67;;;;;;;2.86;100.00;94091.44;5101151;28;20200;-68
2021/12/10 04:04:37;;;;;;;88.10;43.63;;;;;;;2.99;100.00;94086.97;5100352;28;20205;-68
2021/12/10 04:07:09;;;;;;;75.37;41.77;;;;;;;2.99;100.00;94089.50;5100035;28;20192;-67
2021/12/10 04:09:37;;;;;;;70.57;39.30;;;;;;;3.01;100.00;94085.28;5099923;28;20921;-68
2021/12/10 04:12:07;;;;;;;83.05;42.40;;;;;;;2.91;100.00;94071.28;5100112;28;20233;-68
2021/12/10 04:14:34;;;;;;;69.67;38.40;;;;;;;2.91;100.00;94081.31;5099319;28;20203;-68
2021/12/10 04:17:01;;;;;;;69.20;38.17;;;;;;;3.12;100.00;94093.44;5099562;28;20897;-68
2021/12/10 04:19:30;;;;;;;63.55;37.20;;;;;;;3.13;100.00;94097.59;5099984;28;20262;-68
2021/12/10 04:21:59;;;;;;;72.50;39.43;;;;;;;3.13;100.00;94092.56;5100246;28;20197;-68
2021/12/10 04:24:30;;;;;;;71.30;38.80;;;;;;;3.14;100.00;94094.22;5101430;28;20293;-68
2021/12/10 04:26:58;;;;;;;76.87;39.83;;;;;;;3.18;100.00;94100.84;5101527;28;20269;-68
2021/12/10 04:29:25;;;;;;;75.83;41.50;;;;;;;3.15;100.00;94095.88;5101446;28;20254;-67
2021/12/10 04:31:55;;;;;;;84.97;44.30;;;;;;;3.10;100.00;94107.69;5101374;28;20228;-69
2021/12/10 04:34:23;;;;;;;74.00;40.65;;;;;;;3.14;100.00;94108.44;5101409;28;20306;-67
2021/12/10 04:36:50;;;;;;;81.25;42.15;;;;;;;2.99;100.00;94104.56;5096916;28;20204;-68
2021/12/10 04:39:17;;;;;;;75.00;40.90;;;;;;;3.19;100.00;94107.50;5098866;28;20252;-68
2021/12/10 04:41:46;;;;;;;71.10;37.97;;;;;;;3.39;100.00;94110.44;5099176;28;20291;-67
2021/12/10 04:44:14;;;;;;;59.57;34.40;;;;;;;3.39;100.00;94112.94;5098830;28;20235;-67
2021/12/10 04:46:41;;;;;;;145.63;70.17;;;;;;;3.53;100.00;94116.81;5099100;28;20292;-68
2021/12/10 04:49:12;;;;;;;69.00;39.73;;;;;;;3.52;100.00;94105.13;5099093;28;20250;-66
2021/12/10 04:51:41;;;;;;;62.83;34.90;;;;;;;3.53;100.00;94106.78;5098853;28;20292;-67
2021/12/10 04:54:11;;;;;;;52.10;30.17;;;;;;;3.59;100.00;94096.59;5099115;28;20216;-66
2021/12/10 04:56:39;;;;;;;51.43;28.87;;;;;;;3.65;100.00;94109.03;5098866;28;20254;-67
2021/12/10 04:59:11;;;;;;;58.83;33.90;;;;;;;3.50;100.00;94111.84;5099478;28;20196;-67
2021/12/10 05:01:39;;;;;;;53.95;31.17;;;;;;;3.71;100.00;94109.69;5099143;28;20759;-67
2021/12/10 05:04:07;;;;;;;58.65;30.27;;;;;;;3.80;100.00;94113.69;5098645;28;20193;-67
2021/12/10 05:06:34;;;;;;;56.75;31.67;;;;;;;3.70;100.00;94109.75;5099854;28;20308;-66
2021/12/10 05:09:01;;;;;;;56.42;31.10;;;;;;;3.70;100.00;94102.22;5100381;28;20294;-66
2021/12/10 05:11:28;;;;;;;55.97;31.10;;;;;;;3.76;100.00;94109.59;5099821;28;20310;-67
2021/12/10 05:13:56;;;;;;;58.77;30.40;;;;;;;3.80;100.00;94111.19;5100515;28;20250;-68
2021/12/10 05:16:26;;;;;;;50.73;29.03;;;;;;;3.54;100.00;94113.44;5099598;28;20723;-68
2021/12/10 05:18:58;;;;;;;47.77;27.77;;;;;;;3.69;100.00;94118.16;5098636;28;20208;-68
2021/12/10 05:21:25;;;;;;;50.22;28.25;;;;;;;3.69;100.00;94103.91;5098232;28;20888;-67
2021/12/10 05:23:52;;;;;;;48.90;29.38;;;;;;;3.67;100.00;94099.78;5097816;28;20209;-68
2021/12/10 05:26:19;;;;;;;70.72;34.58;;;;;;;3.53;100.00;94106.78;5098155;28;20560;-67
2021/12/10 05:28:47;;;;;;;76.70;40.67;;;;;;;3.71;100.00;94112.22;5098184;28;20289;-67
2021/12/10 05:31:14;;;;;;;61.25;34.80;;;;;;;3.84;100.00;94127.03;5099044;28;20209;-67
2021/12/10 05:33:42;;;;;;;64.05;33.38;;;;;;;3.79;100.00;94117.06;5100840;28;20224;-69
2021/12/10 05:36:09;;;;;;;55.67;30.53;;;;;;;3.66;100.00;94114.03;5104613;28;20205;-68
2021/12/10 05:38:37;;;;;;;58.38;33.20;;;;;;;3.60;100.00;94103.28;5100350;28;20195;-68
2021/12/10 05:41:06;;;;;;;48.90;28.80;;;;;;;3.73;100.00;94104.63;5102452;28;20557;-67
2021/12/10 05:43:33;;;;;;;51.73;29.80;;;;;;;3.93;100.00;94105.03;5102610;28;20193;-67
2021/12/10 05:46:00;;;;;;;54.10;29.10;;;;;;;4.05;100.00;94101.38;5102310;28;21174;-68
2021/12/10 05:48:27;;;;;;;47.47;27.90;;;;;;;3.98;100.00;94100.69;5102472;28;20204;-68
2021/12/10 05:50:55;;;;;;;56.25;30.75;;;;;;;3.90;100.00;94097.56;5102439;28;20633;-68
2021/12/10 05:53:23;;;;;;;53.35;30.58;;;;;;;3.60;100.00;94098.25;5102702;28;20323;-68
2021/12/10 05:55:50;;;;;;;52.07;31.57;;;;;;;3.59;100.00;94092.41;5102250;28;20805;-66
2021/12/10 05:58:17;;;;;;;45.20;28.60;;;;;;;3.47;100.00;94091.84;5102491;28;20671;-67
2021/12/10 06:00:47;;;;;;;54.90;31.93;;;;;;;3.41;100.00;94097.84;5102045;28;20201;-67
2021/12/10 06:03:14;;;;;;;62.07;34.03;;;;;;;3.50;100.00;94094.28;5102538;28;20250;-66
2021/12/10 06:05:43;;;;;;;57.73;32.70;;;;;;;3.36;100.00;94075.34;5101754;28;20201;-67
2021/12/10 06:08:12;;;;;;;61.87;31.50;;;;;;;3.50;100.00;94096.78;5102667;28;20636;-67
2021/12/10 06:10:40;;;;;;;52.95;30.80;;;;;;;3.41;100.00;94071.03;5101855;28;20216;-66
2021/12/10 06:13:08;;;;;;;54.07;30.17;;;;;;;3.39;100.00;94080.28;5102410;28;20236;-67
2021/12/10 06:15:37;;;;;;;59.47;30.60;;;;;;;3.41;100.00;94105.38;5102107;28;20205;-67
2021/12/10 06:18:04;;;;;;;60.88;30.60;;;;;;;3.42;100.00;94075.22;5101605;28;20205;-67
2021/12/10 06:20:33;;;;;;;51.33;27.07;;;;;;;3.55;100.00;94093.31;5101697;28;21380;-67
2021/12/10 06:23:01;;;;;;;45.57;26.27;;;;;;;3.66;100.00;94088.06;5102341;28;20189;-67
2021/12/10 06:25:31;;;;;;;44.60;27.87;;;;;;;3.69;100.00;94103.91;5103654;28;21170;-67
2021/12/10 06:27:58;;;;;;;43.73;25.00;;;;;;;3.74;100.00;94097.06;5102883;28;20201;-67
2021/12/10 06:30:30;;;;;;;40.92;24.33;;;;;;;3.63;100.00;94094.00;5101553;28;20821;-67
2021/12/10 06:32:59;;;;;;;41.97;25.52;;;;;;;3.66;100.00;94114.03;5101317;28;20298;-67
2021/12/10 06:35:29;;;;;;;37.20;23.97;;;;;;;3.67;100.00;94085.53;5101233;28;20654;-67
2021/12/10 06:37:56;;;;;;;37.40;22.37;;;;;;;3.71;100.00;94113.94;5101285;28;20205;-67
2021/12/10 06:40:26;;;;;;;35.93;21.63;;;;;;;3.80;100.00;94096.09;5101154;28;20305;-67
2021/12/10 06:42:54;;;;;;;42.40;23.10;;;;;;;3.84;100.00;94090.16;5101275;28;20266;-66
2021/12/10 06:45:26;;;;;;;36.42;21.60;;;;;;;3.85;100.00;94074.22;5103106;28;20205;-67
2021/12/10 06:47:55;;;;;;;36.40;23.77;;;;;;;3.86;100.00;94060.78;5099970;28;20205;-67
2021/12/10 06:50:25;;;;;;;39.73;22.50;;;;;;;4.08;100.00;94084.53;5101655;28;20188;-67
2021/12/10 06:52:52;;;;;;;40.27;23.83;;;;;;;4.02;100.00;94073.81;5101313;28;20220;-67
2021/12/10 06:55:19;;;;;;;41.00;24.75;;;;;;;3.98;100.00;94090.66;5100860;28;20732;-68
2021/12/10 06:57:46;;;;;;;40.83;23.00;;;;;;;4.04;100.00;94094.72;5100862;28;20201;-69
2021/12/10 07:00:18;;;;;;;37.50;22.77;;;;;;;4.07;100.00;94085.41;5101403;28;20700;-67
2021/12/10 07:02:46;;;;;;;37.30;21.45;;;;;;;4.05;100.00;94082.09;5101267;28;20265;-68
2021/12/10 07:05:13;;;;;;;33.67;22.33;;;;;;;3.99;100.00;94094.81;5101215;28;20242;-68
2021/12/10 07:07:41;;;;;;;37.03;21.73;;;;;;;4.16;100.00;94093.59;5101449;28;20233;-67
2021/12/10 07:10:10;;;;;;;35.22;22.60;;;;;;;4.08;100.00;94094.59;5100944;28;20221;-68
2021/12/10 07:12:38;;;;;;;37.45;23.55;;;;;;;4.15;100.00;94107.03;5100627;28;20667;-68
2021/12/10 07:15:09;;;;;;;40.03;22.40;;;;;;;4.03;100.00;94098.09;5100853;28;20844;-68
2021/12/10 07:17:41;;;;;;;36.80;20.58;;;;;;;4.05;100.00;94094.66;5101921;28;20209;-68
2021/12/10 07:20:09;;;;;;;35.88;21.90;;;;;;;4.28;100.00;94099.13;5102541;28;20201;-68
2021/12/10 07:22:37;;;;;;;32.55;20.48;;;;;;;4.49;100.00;94101.97;5102382;28;20201;-68
2021/12/10 07:25:07;;;;;;;33.87;21.73;;;;;;;4.62;100.00;94103.31;5101944;28;20586;-67
2021/12/10 07:27:34;;;;;;;26.73;19.07;;;;;;;4.60;100.00;94095.81;5102649;28;20224;-68
2021/12/10 07:30:01;;;;;;;31.60;20.27;;;;;;;4.44;100.00;94082.81;5102285;28;20197;-68
2021/12/10 07:32:28;;;;;;;31.10;19.27;;;;;;;4.43;100.00;94087.88;5102473;28;20254;-67
2021/12/10 07:34:56;;;;;;;31.57;20.00;;;;;;;4.40;100.00;94077.91;5102416;28;20224;-66
2021/12/10 07:37:23;;;;;;;32.20;21.40;;;;;;;4.45;100.00;94081.91;5102097;28;20262;-66
2021/12/10 07:39:49;;;;;;;34.53;22.10;;;;;;;4.50;100.00;94086.84;5102096;28;20244;-66
2021/12/10 07:42:17;;;;;;;44.63;23.90;;;;;;;4.52;100.00;94095.19;5102385;28;20197;-66
2021/12/10 07:44:44;;;;;;;44.23;26.17;;;;;;;4.40;100.00;94086.28;5102128;28;20246;-67
2021/12/10 07:47:13;;;;;;;47.88;28.20;;;;;;;4.45;100.00;94091.19;5102218;28;20224;-68
2021/12/10 07:49:41;;;;;;;44.13;27.03;;;;;;;4.52;100.00;94096.88;5101499;28;20195;-68
2021/12/10 07:52:16;;;;;;;44.00;27.30;;;;;;;4.49;100.00;94089.41;5102817;28;20209;-66
2021/12/10 07:54:46;;;;;;;49.27;28.17;;;;;;;4.67;100.00;94087.25;5100029;28;20265;-68
2021/12/10 07:57:13;;;;;;;46.72;28.77;;;;;;;4.75;100.00;94079.47;5098443;28;20205;-67
2021/12/10 07:59:40;;;;;;;68.85;33.25;;;;;;;4.69;100.00;94095.59;5100334;28;20205;-67
2021/12/10 08:02:07;;;;;;;71.95;39.38;;;;;;;4.73;100.00;94082.03;5099852;28;20189;-68
2021/12/10 08:04:34;;;;;;;89.13;43.13;;;;;;;4.57;100.00;94090.03;5099832;28;20261;-67
2021/12/10 08:07:01;;;;;;;121.97;61.38;;;;;;;4.54;100.00;94098.47;5099831;28;20197;-66
2021/12/10 08:09:29;;;;;;;114.00;59.70;;;;;;;4.40;100.00;94080.41;5099570;28;20208;-67
2021/12/10 08:11:56;;;;;;;109.40;55.65;;;;;;;4.58;100.00;94107.59;5099454;28;20615;-67
2021/12/10 08:14:23;;;;;;;117.53;59.30;;;;;;;4.37;100.00;94108.16;5099444;28;20638;-67
2021/12/10 08:16:50;;;;;;;113.57;60.08;;;;;;;4.21;100.00;94100.13;5099695;28;20240;-67
2021/12/10 08:19:17;;;;;;;106.17;58.10;;;;;;;4.29;100.00;94103.31;5099716;28;20740;-67
2021/12/10 08:21:44;;;;;;;126.57;60.47;;;;;;;4.51;100.00;94083.47;5100033;28;20479;-66
2021/12/10 08:24:11;;;;;;;113.78;56.05;;;;;;;4.84;100.00;94088.47;5099331;28;20189;-67
2021/12/10 08:26:40;;;;;;;109.35;59.60;;;;;;;4.92;100.00;94104.22;5101276;28;20217;-67
2021/12/10 08:29:08;;;;;;;123.18;61.00;;;;;;;4.83;100.00;94106.97;5100293;28;20275;-67
2021/12/10 08:31:35;;;;;;;126.63;62.40;;;;;;;4.74;100.00;94103.81;5099503;28;20545;-66
2021/12/10 08:34:02;;;;;;;130.40;64.22;;;;;;;4.86;100.00;94104.38;5099504;28;20230;-66
2021/12/10 08:36:31;;;;;;;130.15;61.80;;;;;;;4.75;100.00;94109.66;5098778;28;20258;-66
2021/12/10 08:38:57;;;;;;;117.75;59.00;;;;;;;4.73;100.00;94107.19;5099168;28;20232;-66
2021/12/10 08:41:27;;;;;;;113.90;59.08;;;;;;;4.97;100.00;94099.84;5099599;28;20197;-67
2021/12/10 08:43:56;;;;;;;122.05;62.97;;;;;;;4.90;100.00;94089.13;5100307;28;20216;-67
2021/12/10 08:46:27;;;;;;;119.30;59.10;;;;;;;5.25;100.00;94085.63;5101161;28;20205;-67
2021/12/10 08:48:55;;;;;;;138.83;63.00;;;;;;;5.45;100.00;94093.41;5101671;28;20251;-67
2021/12/10 08:51:25;;;;;;;149.80;65.30;;;;;;;5.51;100.00;94096.63;5100238;28;20206;-68
2021/12/10 08:53:53;;;;;;;141.70;68.03;;;;;;;5.17;100.00;94096.81;5100998;28;20221;-68
2021/12/10 08:56:21;;;;;;;146.10;66.78;;;;;;;5.15;100.00;94083.41;5100313;28;20205;-67
2021/12/10 08:58:49;;;;;;;160.75;74.07;;;;;;;5.22;100.00;94095.78;5100676;28;20296;-66
2021/12/10 09:01:21;;;;;;;158.88;74.95;;;;;;;5.37;100.00;94095.34;5096313;27;20610;-67
2021/12/10 09:03:50;;;;;;;159.38;70.78;;;;;;;5.10;100.00;94106.22;5099690;28;20201;-66
2021/12/10 09:06:19;;;;;;;135.93;65.38;;;;;;;5.23;100.00;94106.69;5099721;28;21282;-66
2021/12/10 09:08:46;;;;;;;134.95;65.22;;;;;;;5.20;100.00;94089.94;5100373;28;20249;-67
2021/12/10 09:11:14;;;;;;;140.10;64.40;;;;;;;4.93;100.00;94098.31;5100521;28;20208;-68
2021/12/10 09:13:43;;;;;;;153.63;67.57;;;;;;;4.81;100.00;94091.91;5100879;28;20236;-67
2021/12/10 09:16:19;;;;;;;136.57;60.88;;;;;;;4.97;100.00;94089.78;5100156;28;20317;-67
2021/12/10 09:18:47;;;;;;;129.40;62.88;;;;;;;5.05;100.00;94082.84;5101334;28;20185;-68
2021/12/10 09:21:14;;;;;;;126.50;60.80;;;;;;;5.20;100.00;94079.09;5108167;28;20193;-68
2021/12/10 09:23:44;;;;;;;133.68;63.95;;;;;;;5.28;100.00;94064.56;5107805;27;20185;-68
2021/12/10 09:26:13;;;;;;;120.70;61.22;;;;;;;5.48;100.00;94065.63;5108739;28;20192;-76
2021/12/10 09:28:44;;;;;;;140.98;67.82;;;;;;;5.15;100.00;94071.66;5109597;28;20212;-68
2021/12/10 09:31:13;;;;;;;136.30;66.70;;;;;;;5.32;100.00;94087.09;5110152;28;20189;-68
2021/12/10 09:33:40;;;;;;;131.13;66.80;;;;;;;5.24;100.00;94083.97;5111102;28;20220;-68
2021/12/10 09:36:08;;;;;;;127.90;63.70;;;;;;;5.23;100.00;94077.28;5110859;28;20192;-68
2021/12/10 09:38:36;;;;;;;125.35;65.20;;;;;;;5.45;100.00;94055.63;5107966;28;20209;-67
2021/12/10 09:41:07;;;;;;;135.13;68.28;;;;;;;5.66;100.00;94038.22;5098692;28;20189;-67
2021/12/10 09:43:34;;;;;;;134.98;69.80;;;;;;;5.80;100.00;94023.47;5087062;28;20273;-67
2021/12/10 09:46:02;;;;;;;125.75;65.70;;;;;;;5.83;100.00;94036.00;5101030;28;20242;-68
2021/12/10 09:48:29;;;;;;;126.40;66.88;;;;;;;5.82;100.00;94036.84;5107020;28;20177;-67
2021/12/10 09:51:00;;;;;;;122.90;62.30;;;;;;;5.80;100.00;94028.53;5107264;28;20659;-70
2021/12/10 09:53:31;;;;;;;117.28;62.55;;;;;;;5.79;100.00;94027.69;5107243;28;20200;-68
2021/12/10 09:56:00;;;;;;;116.35;58.38;;;;;;;5.72;100.00;94030.44;5108067;28;20736;-69
2021/12/10 09:58:27;;;;;;;112.53;54.45;;;;;;;5.66;100.00;94025.63;5092331;28;20232;-68
2021/12/10 10:00:58;;;;;;;99.80;52.70;;;;;;;5.86;100.00;94033.38;5088368;28;20189;-68
2021/12/10 10:03:30;;;;;;;96.65;50.72;;;;;;;6.02;100.00;94029.50;5089108;28;20539;-68
2021/12/10 10:05:58;;;;;;;100.45;48.70;;;;;;;6.00;100.00;94005.22;5088613;28;20266;-67
2021/12/10 10:08:26;;;;;;;90.63;46.75;;;;;;;5.99;100.00;93998.53;5088582;28;20189;-68
2021/12/10 10:10:58;;;;;;;90.22;48.25;;;;;;;6.22;100.00;93985.13;5090047;28;20205;-67
2021/12/10 10:13:33;;;;;;;95.05;49.90;;;;;;;6.50;100.00;93990.88;5090710;28;20713;-68
2021/12/10 10:16:01;;;;;;;108.68;52.22;;;;;;;6.92;98.28;93980.16;5090876;28;20651;-68
2021/12/10 10:18:33;;;;;;;104.65;54.03;;;;;;;7.22;98.10;93996.66;5090716;28;20223;-67
2021/12/10 10:21:02;;;;;;;126.15;61.00;;;;;;;7.38;96.26;93996.94;5093919;28;20194;-68
2021/12/10 10:23:29;;;;;;;125.90;61.28;;;;;;;7.55;95.59;93983.63;5094975;27;20216;-67
2021/12/10 10:26:02;;;;;;;120.43;58.17;;;;;;;7.63;95.94;93991.75;5101375;28;20201;-67
2021/12/10 10:28:29;;;;;;;106.25;54.00;;;;;;;7.69;94.98;93986.44;5101556;28;20204;-69
2021/12/10 10:31:01;;;;;;;102.22;47.95;;;;;;;7.74;94.54;93982.84;5101171;28;20296;-66
2021/12/10 10:33:31;;;;;;;89.05;45.33;;;;;;;7.70;93.63;93985.53;5101102;28;20296;-67
2021/12/10 10:36:05;;;;;;;84.93;46.47;;;;;;;7.62;94.55;93969.88;5101437;28;20330;-67
2021/12/10 10:38:32;;;;;;;87.18;47.58;;;;;;;7.79;93.62;93972.53;5101538;28;20200;-67
2021/12/10 10:41:06;;;;;;;118.25;56.67;;;;;;;7.51;94.33;93963.53;5101640;28;20224;-66
2021/12/10 10:43:33;;;;;;;142.32;68.47;;;;;;;7.16;92.85;93959.84;5102169;28;20209;-66
2021/12/10 10:46:00;;;;;;;133.40;68.32;;;;;;;7.05;94.19;93963.66;5098551;28;20200;-68
2021/12/10 10:48:28;;;;;;;138.63;69.60;;;;;;;7.05;94.99;93969.53;5100748;28;20208;-67
2021/12/10 10:50:58;;;;;;;143.15;70.50;;;;;;;7.08;94.26;93963.53;5100910;28;20902;-67
2021/12/10 10:53:28;;;;;;;143.35;66.30;;;;;;;7.13;94.17;93956.59;5101732;28;20257;-68
2021/12/10 10:55:59;;;;;;;107.78;53.67;;;;;;;6.92;96.42;93962.47;5100886;28;20563;-67
2021/12/10 10:58:30;;;;;;;98.82;50.78;;;;;;;7.03;97.09;93968.75;5101465;28;20197;-67
2021/12/10 11:01:03;;;;;;;125.07;62.83;;;;;;;7.14;97.26;93966.66;5101182;28;20206;-68
2021/12/10 11:03:38;;;;;;;123.15;60.63;;;;;;;7.16;97.13;93956.50;5102749;28;20205;-67
2021/12/10 11:06:08;;;;;;;126.93;61.53;;;;;;;7.20;97.45;93952.13;5101494;28;20205;-68
2021/12/10 11:08:38;;;;;;;107.60;52.85;;;;;;;7.16;97.41;93962.38;5101211;28;20250;-68
2021/12/10 11:11:10;;;;;;;97.22;50.13;;;;;;;7.43;94.94;93965.50;5100605;28;20587;-68
2021/12/10 11:13:39;;;;;;;95.05;50.35;;;;;;;7.32;96.26;93952.50;5101010;28;20266;-67
2021/12/10 11:16:08;;;;;;;86.68;43.85;;;;;;;7.21;96.99;93944.50;5101551;28;20212;-67
2021/12/10 11:18:50;;;;;;;89.50;45.78;;;;;;;7.39;96.38;93964.03;5102708;28;20569;-68
2021/12/10 11:21:19;;;;;;;79.68;43.75;;;;;;;7.35;96.05;93972.59;5110312;28;20273;-67
2021/12/10 11:23:46;;;;;;;81.47;42.50;;;;;;;6.93;96.71;93954.00;5110987;28;20906;-67
2021/12/10 11:26:13;;;;;;;57.92;32.90;;;;;;;6.70;97.92;93942.22;5111628;28;20265;-67
2021/12/10 11:28:42;;;;;;;68.70;35.63;;;;;;;6.71;98.29;93954.78;5111550;28;20201;-68
2021/12/10 11:31:15;;;;;;;61.47;34.15;;;;;;;6.73;98.65;93959.78;5110665;28;20193;-68
2021/12/10 11:33:49;;;;;;;65.32;36.25;;;;;;;6.89;98.84;93958.34;5111958;28;20188;-68